Time;durP1;ratioP1;P1;durP2;ratioP2;P2;SDS_P1;SDS_P2;PMS_P1;PMS_P2;Temp;Humidity;BMP_temperature;BMP_pressure;BME280_temperature;BME280_humidity;BME280_pressure;Samples;Min_cycle;Max_cycle;Signal;HPM_P1;HPM_P2
2023/03/24 00:01:34;;;;;;;7.57;6.77;;;;;;;14.83;87.49;97302.44;4116565;28;21011;-87
2023/03/24 00:03:38;;;;;;;7.90;6.13;;;;;;;14.82;87.47;97308.66;4126946;28;20672;-87
2023/03/24 00:05:42;;;;;;;8.20;6.87;;;;;;;14.79;87.40;97310.78;4125694;28;20687;-86
2023/03/24 00:07:47;;;;;;;7.37;6.47;;;;;;;14.78;86.91;97312.56;4111100;28;20623;-86
2023/03/24 00:09:54;;;;;;;7.63;6.33;;;;;;;14.73;88.14;97314.84;4125948;28;21044;-87
2023/03/24 00:11:58;;;;;;;7.70;6.27;;;;;;;14.72;88.24;97309.72;4124164;28;20653;-86
2023/03/24 00:14:01;;;;;;;6.53;5.93;;;;;;;14.71;89.36;97314.13;4117769;28;20670;-86
2023/03/24 00:16:06;;;;;;;7.47;5.97;;;;;;;14.70;88.20;97323.00;4125437;28;21377;-86
2023/03/24 00:18:10;;;;;;;9.20;5.97;;;;;;;14.71;88.25;97306.25;4138139;28;21235;-86
2023/03/24 00:20:15;;;;;;;7.27;6.50;;;;;;;14.67;89.39;97294.44;4123550;28;20642;-86
2023/03/24 00:34:21;;;;;;;8.50;5.83;;;;;;;14.42;90.82;97286.44;4124710;28;20631;-86
2023/03/24 00:36:27;;;;;;;7.33;6.43;;;;;;;14.39;91.43;97281.50;4141134;28;20673;-86
2023/03/24 00:38:33;;;;;;;8.13;5.80;;;;;;;14.37;91.08;97282.59;4138357;28;20629;-87
2023/03/24 00:40:36;;;;;;;7.53;5.60;;;;;;;14.36;91.99;97284.41;4123008;28;20658;-86
2023/03/24 00:42:40;;;;;;;9.67;5.93;;;;;;;14.36;91.66;97276.53;4118866;28;20687;-86
2023/03/24 00:44:44;;;;;;;7.13;6.43;;;;;;;14.37;92.42;97277.34;4103883;28;20765;-85
2023/03/24 00:46:54;;;;;;;7.90;6.47;;;;;;;14.35;92.80;97255.69;4107586;28;20647;-86
2023/03/24 00:49:02;;;;;;;7.53;6.67;;;;;;;14.24;92.24;97258.53;4125737;28;20653;-86
2023/03/24 00:51:09;;;;;;;8.73;6.53;;;;;;;14.17;92.86;97255.66;4142783;28;20639;-86
2023/03/24 00:53:14;;;;;;;9.07;5.90;;;;;;;14.12;92.69;97245.75;4139242;28;20721;-86
2023/03/24 00:55:18;;;;;;;8.27;6.67;;;;;;;14.11;93.36;97249.38;4124769;28;20655;-87
2023/03/24 00:57:21;;;;;;;8.50;6.10;;;;;;;14.12;93.66;97243.13;4144072;28;20650;-86
2023/03/24 00:59:28;;;;;;;7.20;6.50;;;;;;;14.12;93.83;97241.34;4119085;28;20675;-87
2023/03/24 01:01:33;;;;;;;8.57;6.70;;;;;;;14.12;94.27;97249.22;4125036;28;20624;-86
2023/03/24 01:03:47;;;;;;;8.57;6.60;;;;;;;14.10;94.17;97240.66;4099388;28;20641;-86
2023/03/24 01:05:53;;;;;;;7.40;6.50;;;;;;;14.10;94.18;97243.28;4106058;28;20690;-86
2023/03/24 01:07:58;;;;;;;7.27;5.87;;;;;;;14.11;94.15;97246.75;4126374;28;20981;-87
2023/03/24 01:10:01;;;;;;;7.63;6.17;;;;;;;14.10;94.41;97232.78;4122528;28;20685;-86
2023/03/24 01:12:05;;;;;;;11.13;6.17;;;;;;;14.10;94.75;97231.97;4126922;28;20703;-86
2023/03/24 01:14:09;;;;;;;9.00;6.47;;;;;;;14.10;94.42;97234.59;4123585;28;21386;-86
2023/03/24 01:16:13;;;;;;;8.23;6.40;;;;;;;14.10;94.70;97227.53;4139082;28;20706;-86
2023/03/24 01:18:17;;;;;;;8.43;6.33;;;;;;;14.07;94.83;97219.97;4104604;28;21358;-87
2023/03/24 01:20:21;;;;;;;6.80;6.10;;;;;;;14.04;94.74;97215.00;4124496;28;20696;-87
2023/03/24 01:22:28;;;;;;;10.63;6.73;;;;;;;14.04;95.60;97209.75;4118434;28;20633;-86
2023/03/24 01:24:32;;;;;;;7.63;6.13;;;;;;;14.03;95.32;97202.88;4123173;28;20630;-87
2023/03/24 01:26:36;;;;;;;7.07;6.37;;;;;;;14.02;95.56;97198.59;4107730;28;20716;-86
2023/03/24 01:28:42;;;;;;;7.97;6.47;;;;;;;14.03;95.24;97200.25;4106205;28;20658;-86
2023/03/24 01:30:45;;;;;;;8.03;6.37;;;;;;;14.03;94.88;97196.81;4126694;28;20659;-86
2023/03/24 01:32:49;;;;;;;7.77;6.87;;;;;;;14.03;95.57;97196.81;4144873;28;20653;-86
2023/03/24 01:34:52;;;;;;;7.30;6.37;;;;;;;14.05;95.67;97187.03;4118270;28;20636;-86
2023/03/24 01:36:56;;;;;;;7.70;6.00;;;;;;;14.03;95.60;97176.66;4120996;28;20639;-86
2023/03/24 01:39:00;;;;;;;6.70;6.00;;;;;;;14.03;95.62;97176.66;4104143;28;21033;-86
2023/03/24 01:41:06;;;;;;;9.03;6.80;;;;;;;14.03;95.84;97171.41;4120058;28;21220;-86
2023/03/24 01:43:17;;;;;;;7.20;5.83;;;;;;;14.05;95.94;97166.03;4131191;28;20635;-86
2023/03/24 01:45:44;;;;;;;10.13;6.50;;;;;;;14.04;96.22;97165.16;4116413;28;20645;-86
2023/03/24 01:47:47;;;;;;;7.10;6.40;;;;;;;14.07;95.85;97169.34;4104593;28;20652;-86
2023/03/24 01:49:53;;;;;;;6.90;6.20;;;;;;;14.05;95.76;97166.03;4115126;28;20676;-87
2023/03/24 01:51:59;;;;;;;9.10;6.57;;;;;;;13.89;96.15;97160.59;4123796;28;21418;-86
2023/03/24 01:54:06;;;;;;;7.60;6.30;;;;;;;13.86;96.44;97159.09;4116304;28;21019;-86
2023/03/24 01:56:10;;;;;;;8.23;6.13;;;;;;;13.84;96.55;97153.16;4132122;28;20629;-87
2023/03/24 01:58:17;;;;;;;6.47;5.80;;;;;;;13.86;96.93;97161.72;4126307;28;20685;-86
2023/03/24 02:00:38;;;;;;;6.07;5.40;;;;;;;13.84;97.46;97158.41;4105059;28;20696;-86
2023/03/24 02:03:19;;;;;;;7.17;6.37;;;;;;;13.86;97.04;97153.88;4121233;28;20670;-86
2023/03/24 02:05:33;;;;;;;7.20;6.47;;;;;;;13.87;97.47;97157.31;4110792;28;21353;-86
2023/03/24 02:07:40;;;;;;;8.53;6.20;;;;;;;13.86;97.23;97156.47;4126774;28;21043;-86
2023/03/24 02:09:44;;;;;;;8.93;6.33;;;;;;;13.86;97.18;97151.25;4120309;28;20647;-86
2023/03/24 02:11:49;;;;;;;9.20;5.80;;;;;;;13.87;97.33;97155.50;4124538;28;20628;-86
2023/03/24 02:13:52;;;;;;;8.00;6.57;;;;;;;13.87;97.34;97158.13;4123904;28;20652;-86
2023/03/24 02:16:09;;;;;;;8.40;6.40;;;;;;;13.85;97.33;97159.25;4109600;28;21032;-86
2023/03/24 02:18:17;;;;;;;6.90;6.20;;;;;;;13.85;97.34;97159.25;4123465;28;20734;-86
2023/03/24 02:20:43;;;;;;;8.20;6.30;;;;;;;13.86;97.28;97159.09;4136564;28;20775;-86
2023/03/24 02:23:05;;;;;;;7.53;6.73;;;;;;;13.86;97.61;97153.03;4124950;28;20633;-87
2023/03/24 02:25:50;;;;;;;8.33;6.57;;;;;;;13.86;97.32;97160.88;4120947;28;20633;-86
2023/03/24 02:28:09;;;;;;;7.47;6.53;;;;;;;13.85;97.41;97164.50;4106657;28;20650;-86
2023/03/24 02:30:39;;;;;;;6.77;6.07;;;;;;;13.84;97.33;97157.59;4117403;28;20679;-87
2023/03/24 02:33:12;;;;;;;7.63;6.73;;;;;;;13.84;97.72;97142.69;4115884;28;20739;-86
2023/03/24 02:36:02;;;;;;;7.17;5.67;;;;;;;13.83;97.92;97148.91;4108130;28;21186;-86
2023/03/24 02:38:23;;;;;;;7.80;5.50;;;;;;;13.82;97.14;97146.44;4087758;28;20659;-86
2023/03/24 02:40:31;;;;;;;6.77;5.50;;;;;;;13.82;97.76;97151.69;4097856;28;20661;-86
2023/03/24 02:42:44;;;;;;;8.00;6.57;;;;;;;13.81;97.67;97150.84;4099750;28;20708;-86
2023/03/24 02:44:51;;;;;;;7.80;6.80;;;;;;;13.81;97.44;97142.97;4113963;28;20671;-86
2023/03/24 02:47:00;;;;;;;7.10;6.10;;;;;;;13.82;97.77;97134.16;4123852;28;21210;-86
2023/03/24 02:49:10;;;;;;;7.60;6.37;;;;;;;13.81;97.60;97137.72;4119988;28;20628;-86
2023/03/24 02:51:16;;;;;;;6.57;5.97;;;;;;;13.80;97.84;97135.25;4132220;28;20624;-86
2023/03/24 02:53:26;;;;;;;8.43;7.17;;;;;;;13.81;97.95;97137.72;4107852;28;20692;-86
2023/03/24 02:56:00;;;;;;;6.73;6.10;;;;;;;13.84;99.26;97139.25;4125213;28;21059;-86
2023/03/24 02:58:06;;;;;;;10.37;6.20;;;;;;;13.86;97.94;97130.28;4118952;28;21226;-86
2023/03/24 03:00:31;;;;;;;11.07;6.60;;;;;;;13.88;98.02;97138.00;4119164;28;20760;-85
2023/03/24 03:02:46;;;;;;;8.10;6.60;;;;;;;13.88;98.07;97138.81;4118253;28;20660;-86
2023/03/24 03:04:54;;;;;;;8.00;6.23;;;;;;;13.84;98.08;97136.63;4108012;28;20687;-86
2023/03/24 03:06:58;;;;;;;7.50;6.70;;;;;;;13.80;98.08;97136.09;4103830;28;20676;-86
2023/03/24 03:09:06;;;;;;;6.70;6.10;;;;;;;13.80;98.35;97136.09;4117090;28;20632;-86
2023/03/24 03:11:14;;;;;;;6.90;6.23;;;;;;;13.81;98.31;97132.50;4118009;28;21045;-86
2023/03/24 03:13:22;;;;;;;8.33;6.10;;;;;;;13.81;98.62;97132.50;4135066;28;20658;-86
2023/03/24 03:15:28;;;;;;;7.43;6.30;;;;;;;13.81;98.20;97129.06;4131255;28;20770;-86
2023/03/24 03:17:35;;;;;;;7.40;5.83;;;;;;;13.81;98.21;97132.50;4121114;28;20630;-86
2023/03/24 03:19:41;;;;;;;7.60;6.80;;;;;;;13.79;98.52;97131.81;4136902;28;20647;-87
2023/03/24 03:21:46;;;;;;;8.13;5.93;;;;;;;13.80;98.37;97128.25;4123836;28;21091;-86
2023/03/24 03:23:52;;;;;;;6.83;5.97;;;;;;;13.79;98.27;97123.97;4133502;28;20683;-86
2023/03/24 03:26:04;;;;;;;7.10;6.40;;;;;;;13.74;98.12;97118.34;4119192;28;21024;-86
2023/03/24 03:28:10;;;;;;;6.50;5.80;;;;;;;13.71;98.67;97121.25;4104610;28;20717;-86
2023/03/24 03:30:18;;;;;;;7.73;6.47;;;;;;;13.70;98.59;97114.38;4136368;28;20626;-86
2023/03/24 03:32:27;;;;;;;7.37;5.83;;;;;;;13.70;98.59;97116.97;4119070;28;20687;-86
2023/03/24 03:34:37;;;;;;;6.80;6.10;;;;;;;13.71;99.25;97105.53;4131497;28;20656;-86
2023/03/24 03:36:44;;;;;;;7.17;6.47;;;;;;;13.70;99.09;97116.16;4109176;28;20682;-86
2023/03/24 03:38:54;;;;;;;9.47;7.40;;;;;;;13.69;99.05;97123.19;4120155;28;21182;-86
2023/03/24 03:40:59;;;;;;;7.93;7.13;;;;;;;13.69;99.24;97114.50;4122724;28;21322;-86
2023/03/24 03:43:09;;;;;;;9.53;7.00;;;;;;;13.69;98.84;97110.09;4109265;28;20693;-86
2023/03/24 03:45:13;;;;;;;8.10;7.33;;;;;;;13.71;99.17;97104.69;4135134;28;21191;-86
2023/03/24 03:47:17;;;;;;;8.17;7.40;;;;;;;13.73;98.40;97106.22;4120211;28;20648;-86
2023/03/24 03:49:21;;;;;;;9.80;7.50;;;;;;;13.64;98.63;97096.59;4101291;28;20673;-86
2023/03/24 03:51:25;;;;;;;9.13;7.63;;;;;;;13.62;99.45;97099.53;4117801;28;20665;-86
2023/03/24 03:53:39;;;;;;;7.70;6.90;;;;;;;13.60;99.27;97094.44;4111982;28;21075;-86
2023/03/24 03:55:42;;;;;;;7.80;7.00;;;;;;;13.60;99.84;97094.44;4108157;28;21231;-86
2023/03/24 03:57:46;;;;;;;10.83;7.20;;;;;;;13.57;99.26;97096.53;4119517;28;20639;-86
2023/03/24 04:00:19;;;;;;;8.07;6.10;;;;;;;13.60;98.91;97098.84;4121084;28;20651;-86
2023/03/24 04:02:46;;;;;;;8.43;6.57;;;;;;;13.59;98.67;97105.91;4134470;28;20654;-85
2023/03/24 04:05:01;;;;;;;6.60;6.00;;;;;;;13.61;99.01;97108.38;4124563;28;20714;-86
2023/03/24 04:07:37;;;;;;;6.93;6.23;;;;;;;13.62;98.94;97113.47;4113582;28;23441;-86
2023/03/24 04:10:08;;;;;;;7.67;6.83;;;;;;;13.61;99.46;97103.13;4131988;28;21081;-86
2023/03/24 04:12:25;;;;;;;8.67;6.40;;;;;;;13.60;99.14;97107.53;4107951;28;21369;-86
2023/03/24 04:15:24;;;;;;;9.50;6.43;;;;;;;13.63;99.70;97103.81;4121749;28;20665;-86
2023/03/24 04:18:26;;;;;;;7.37;6.30;;;;;;;13.62;99.86;97099.53;4109990;28;20672;-85
2023/03/24 04:20:45;;;;;;;7.47;6.40;;;;;;;13.63;99.58;97103.81;4105690;28;20710;-85
2023/03/24 04:23:01;;;;;;;9.33;6.40;;;;;;;13.63;99.70;97111.66;4106074;28;20647;-85
2023/03/24 04:25:13;;;;;;;8.00;6.50;;;;;;;13.64;99.15;97115.94;4098650;28;20625;-85
2023/03/24 04:27:26;;;;;;;6.87;5.93;;;;;;;13.65;99.21;97118.38;4117851;28;20643;-85
2023/03/24 04:29:35;;;;;;;7.90;7.07;;;;;;;13.64;99.46;97114.94;4127194;28;20621;-85
2023/03/24 04:31:43;;;;;;;6.83;6.03;;;;;;;13.65;99.02;97119.22;4137222;28;20644;-85
2023/03/24 04:33:50;;;;;;;7.60;6.63;;;;;;;13.66;99.37;97115.63;4140732;28;20635;-84
2023/03/24 04:36:00;;;;;;;8.03;6.50;;;;;;;13.68;99.47;97107.59;4110266;28;20723;-84
2023/03/24 04:38:16;;;;;;;8.90;6.70;;;;;;;13.70;99.75;97111.75;4119136;28;21258;-85
2023/03/24 04:40:25;;;;;;;7.73;6.83;;;;;;;13.71;99.18;97105.53;4124113;28;20663;-85
2023/03/24 04:42:32;;;;;;;6.97;6.17;;;;;;;13.71;99.03;97102.91;4121211;28;20714;-85
2023/03/24 04:44:35;;;;;;;7.43;6.53;;;;;;;13.72;99.63;97101.94;4124731;28;20642;-85
2023/03/24 04:47:02;;;;;;;7.33;5.90;;;;;;;13.74;99.08;97104.41;4125319;28;21237;-85
2023/03/24 04:49:05;;;;;;;6.93;6.23;;;;;;;13.73;99.03;97100.97;4131122;28;20633;-85
2023/03/24 04:51:13;;;;;;;6.77;5.90;;;;;;;13.74;99.64;97100.00;4134918;28;20631;-85
2023/03/24 04:53:42;;;;;;;6.90;6.20;;;;;;;13.74;99.09;97099.16;4121251;28;20961;-85
2023/03/24 04:56:01;;;;;;;7.97;6.47;;;;;;;13.74;99.24;97094.75;4125371;28;20663;-85
2023/03/24 04:58:24;;;;;;;10.03;7.10;;;;;;;13.74;99.19;97100.00;4104133;28;21249;-85
2023/03/24 05:00:27;;;;;;;7.60;6.40;;;;;;;13.73;98.85;97098.34;4122256;28;20640;-85
2023/03/24 05:02:32;;;;;;;8.00;7.20;;;;;;;13.74;98.83;97110.50;4110133;28;20635;-85
2023/03/24 05:04:41;;;;;;;8.17;7.13;;;;;;;13.75;98.96;97111.31;4099472;28;20674;-85
2023/03/24 05:06:54;;;;;;;11.33;8.87;;;;;;;13.80;98.64;97123.00;4140691;28;20665;-85
2023/03/24 05:09:00;;;;;;;10.70;7.60;;;;;;;13.68;98.42;97115.47;4116672;28;20734;-85
2023/03/24 05:11:06;;;;;;;13.97;8.43;;;;;;;13.65;99.09;97111.38;4128018;28;21350;-85
2023/03/24 05:13:10;;;;;;;9.80;7.63;;;;;;;13.63;98.66;97116.91;4107286;28;20632;-85
2023/03/24 05:15:20;;;;;;;9.30;8.00;;;;;;;13.64;99.13;97118.56;4121039;28;20662;-85
2023/03/24 05:17:28;;;;;;;8.77;7.20;;;;;;;13.63;99.08;97127.38;4117038;28;20636;-85
2023/03/24 05:19:33;;;;;;;9.43;7.40;;;;;;;13.62;98.81;97133.59;4119383;28;20764;-85
2023/03/24 05:21:37;;;;;;;8.90;7.70;;;;;;;13.62;99.16;97130.97;4103562;28;20649;-85
2023/03/24 05:23:41;;;;;;;9.40;7.50;;;;;;;13.63;99.62;97154.41;4114977;28;20755;-85
2023/03/24 05:25:46;;;;;;;9.27;7.40;;;;;;;13.58;100.00;97153.22;4109581;28;20648;-85
2023/03/24 05:27:50;;;;;;;10.07;7.80;;;;;;;13.51;99.46;97155.56;4110269;28;20638;-85
2023/03/24 05:29:56;;;;;;;8.60;7.27;;;;;;;13.50;99.48;97163.56;4123938;28;20671;-85
2023/03/24 05:32:02;;;;;;;8.60;7.70;;;;;;;13.47;99.61;97180.41;4101029;28;20649;-85
2023/03/24 05:34:06;;;;;;;8.03;6.40;;;;;;;13.50;99.72;97189.75;4115005;28;20793;-85
2023/03/24 05:36:20;;;;;;;9.07;6.30;;;;;;;13.52;98.75;97208.81;4133940;28;20699;-85
2023/03/24 05:38:34;;;;;;;8.30;6.60;;;;;;;13.57;99.27;97232.78;4115991;28;21462;-85
2023/03/24 05:40:37;;;;;;;7.23;6.53;;;;;;;13.55;99.30;97239.97;4115824;28;21486;-85
2023/03/24 05:42:48;;;;;;;6.37;4.77;;;;;;;13.53;98.29;97255.81;4128296;28;21245;-85
2023/03/24 05:44:51;;;;;;;5.40;4.07;;;;;;;13.59;97.50;97262.25;4109674;28;20642;-83
2023/03/24 05:47:01;;;;;;;4.60;4.10;;;;;;;13.68;95.00;97260.44;4132889;28;20758;-83
2023/03/24 05:49:04;;;;;;;5.90;4.37;;;;;;;13.73;94.36;97260.81;4130878;28;20292;-84
2023/03/24 05:51:10;;;;;;;5.63;4.40;;;;;;;13.80;94.32;97264.53;4111027;28;20634;-85
2023/03/24 05:53:15;;;;;;;4.60;4.03;;;;;;;13.86;93.91;97266.59;4120271;28;21034;-83
2023/03/24 05:55:57;;;;;;;4.50;3.40;;;;;;;13.98;92.02;97265.41;4110781;28;20751;-83
2023/03/24 05:58:20;;;;;;;4.83;3.20;;;;;;;14.04;92.54;97267.44;4123800;28;20209;-83
2023/03/24 06:00:25;;;;;;;4.33;3.80;;;;;;;14.08;92.23;97263.59;4142678;28;20723;-83
2023/03/24 06:02:42;;;;;;;7.50;3.90;;;;;;;14.11;92.22;97276.41;4122920;28;20707;-83
2023/03/24 06:05:00;;;;;;;4.50;3.47;;;;;;;14.14;92.48;97274.31;4120914;28;20660;-83
2023/03/24 06:07:04;;;;;;;9.17;5.03;;;;;;;14.19;92.10;97274.72;4107211;28;20701;-83
2023/03/24 06:09:13;;;;;;;13.93;8.17;;;;;;;14.20;92.50;97284.22;4120378;28;21360;-83
2023/03/24 06:11:16;;;;;;;8.73;5.20;;;;;;;14.20;92.14;97281.59;4122111;28;20862;-83
2023/03/24 06:13:27;;;;;;;4.33;3.33;;;;;;;14.22;92.85;97278.81;4123004;28;20735;-83
2023/03/24 06:15:30;;;;;;;4.63;3.20;;;;;;;14.25;93.18;97283.78;4119737;28;21255;-83
2023/03/24 06:17:49;;;;;;;3.37;2.87;;;;;;;14.28;92.98;97284.34;4129215;28;20656;-83
2023/03/24 06:20:04;;;;;;;3.50;3.20;;;;;;;14.30;93.72;97281.56;4124721;28;21102;-83
2023/03/24 06:22:18;;;;;;;4.10;3.00;;;;;;;14.29;93.99;97277.28;4126103;28;21188;-83
2023/03/24 06:24:22;;;;;;;4.00;2.90;;;;;;;14.30;93.49;97277.13;4138824;28;20653;-83
2023/03/24 06:26:29;;;;;;;3.47;3.10;;;;;;;14.32;93.69;97284.84;4114253;28;20673;-83
2023/03/24 06:28:34;;;;;;;3.80;3.00;;;;;;;14.34;94.40;97281.13;4137668;28;20747;-83
2023/03/24 06:30:47;;;;;;;3.03;2.73;;;;;;;14.36;94.32;97280.97;4108756;28;20645;-83
2023/03/24 06:32:57;;;;;;;5.00;3.30;;;;;;;14.37;94.80;97279.97;4120675;28;21036;-83
2023/03/24 06:35:00;;;;;;;3.53;3.13;;;;;;;14.38;95.10;97279.84;4134107;28;20989;-83
2023/03/24 06:37:29;;;;;;;3.70;3.27;;;;;;;14.41;94.92;97283.97;4125652;28;20664;-83
2023/03/24 06:39:35;;;;;;;4.27;3.00;;;;;;;14.41;95.84;97281.34;4121526;28;21058;-83
2023/03/24 06:41:38;;;;;;;3.67;3.20;;;;;;;14.42;95.75;97280.38;4122100;28;20634;-83
2023/03/24 06:43:41;;;;;;;4.55;3.70;;;;;;;14.44;95.86;97281.88;4117589;28;20770;-83
2023/03/24 06:45:45;;;;;;;4.17;3.60;;;;;;;14.47;96.50;97280.75;4126008;28;20457;-83
2023/03/24 06:47:54;;;;;;;4.50;3.83;;;;;;;14.50;96.27;97277.84;4119506;28;21002;-83
2023/03/24 06:49:58;;;;;;;5.50;3.93;;;;;;;14.50;96.55;97265.53;4107945;28;20643;-84
2023/03/24 06:52:01;;;;;;;5.27;4.00;;;;;;;14.49;96.45;97266.50;4128735;28;20635;-84
2023/03/24 06:54:06;;;;;;;5.40;4.27;;;;;;;14.48;96.28;97269.25;4120079;28;20699;-83
2023/03/24 06:56:15;;;;;;;4.33;3.83;;;;;;;14.50;97.02;97272.59;4126526;28;20728;-83
2023/03/24 06:58:22;;;;;;;4.83;3.93;;;;;;;14.49;96.50;97273.56;4118616;28;21237;-82
2023/03/24 07:00:54;;;;;;;4.50;4.10;;;;;;;14.54;96.16;97279.16;4121277;28;20663;-83
2023/03/24 07:03:05;;;;;;;5.07;3.90;;;;;;;14.54;96.00;97279.16;4110521;28;20744;-82
2023/03/24 07:05:09;;;;;;;4.63;3.50;;;;;;;14.60;95.29;97280.25;4144389;28;20668;-82
2023/03/24 07:07:17;;;;;;;5.73;4.20;;;;;;;14.63;95.28;97290.44;4124354;28;20720;-83
2023/03/24 07:10:03;;;;;;;5.13;4.03;;;;;;;14.66;95.38;97284.06;4125059;28;20723;-84
2023/03/24 07:12:10;;;;;;;3.87;3.40;;;;;;;14.67;94.64;97276.06;4107818;28;20649;-85
2023/03/24 07:14:15;;;;;;;5.00;4.03;;;;;;;14.66;95.03;97279.66;4106243;28;20653;-85
2023/03/24 07:16:19;;;;;;;7.63;4.20;;;;;;;14.65;97.09;97277.97;4127136;28;21355;-85
2023/03/24 07:18:29;;;;;;;7.07;5.10;;;;;;;14.61;96.96;97283.69;4126640;28;20713;-85
2023/03/24 07:20:37;;;;;;;5.60;4.43;;;;;;;14.59;95.61;97284.81;4126911;28;20625;-85
2023/03/24 07:22:46;;;;;;;4.10;3.70;;;;;;;14.59;95.57;97295.31;4104094;28;20625;-86
2023/03/24 07:25:13;;;;;;;4.70;4.30;;;;;;;14.59;95.88;97287.44;4118204;28;21016;-85
2023/03/24 07:27:28;;;;;;;4.93;4.43;;;;;;;14.58;95.56;97289.22;4106447;28;20635;-87
2023/03/24 07:29:31;;;;;;;5.67;4.33;;;;;;;14.57;95.02;97297.25;4120288;28;20637;-86
2023/03/24 07:31:57;;;;;;;4.70;3.97;;;;;;;14.56;95.22;97299.06;4118700;28;20631;-85
2023/03/24 07:34:01;;;;;;;5.70;4.33;;;;;;;14.57;95.46;97302.50;4122305;28;20625;-90
2023/03/24 07:36:06;;;;;;;6.77;4.30;;;;;;;14.57;95.61;97299.88;4109715;28;20638;-87
2023/03/24 07:38:12;;;;;;;4.87;4.33;;;;;;;14.57;95.43;97318.25;4121584;28;20697;-86
2023/03/24 07:40:15;;;;;;;5.50;4.50;;;;;;;14.57;95.20;97311.22;4118016;28;20629;-87
2023/03/24 07:42:19;;;;;;;5.90;4.40;;;;;;;14.57;95.43;97313.00;4126372;28;20630;-87
2023/03/24 07:44:45;;;;;;;5.37;4.47;;;;;;;14.54;96.18;97318.53;4099745;28;20658;-88
2023/03/24 07:46:48;;;;;;;5.93;4.83;;;;;;;14.52;96.33;97320.50;4109304;28;20632;-87
2023/03/24 07:48:51;;;;;;;5.77;4.70;;;;;;;14.48;95.50;97324.38;4118824;28;20669;-88
2023/03/24 07:50:55;;;;;;;5.83;4.60;;;;;;;14.47;96.65;97331.44;4120771;28;20690;-87
2023/03/24 07:53:18;;;;;;;5.77;4.43;;;;;;;14.41;97.15;97337.25;4127841;28;21020;-88
2023/03/24 07:55:25;;;;;;;5.17;4.67;;;;;;;14.41;98.68;97346.94;4125094;28;20681;-88
2023/03/24 07:57:34;;;;;;;7.10;4.67;;;;;;;14.38;98.71;97347.22;4119938;28;21259;-88
2023/03/24 07:59:37;;;;;;;5.23;4.10;;;;;;;14.35;97.79;97337.03;4107128;28;20647;-87
2023/03/24 08:02:01;;;;;;;5.30;4.50;;;;;;;14.24;99.83;97342.47;4125091;28;20748;-86
2023/03/24 08:04:14;;;;;;;4.90;4.30;;;;;;;14.26;99.80;97349.22;4124617;28;20763;-86
2023/03/24 08:06:53;;;;;;;5.20;4.27;;;;;;;14.21;100.00;97340.13;4074726;29;20647;-89
2023/03/24 08:08:56;;;;;;;5.20;4.03;;;;;;;14.17;100.00;97344.00;4101116;28;20647;-89
2023/03/24 08:11:00;;;;;;;4.87;4.37;;;;;;;14.19;100.00;97342.06;4126017;28;20648;-88
2023/03/24 08:13:03;;;;;;;7.73;4.30;;;;;;;14.23;100.00;97332.94;4126232;28;20692;-87
2023/03/24 08:15:08;;;;;;;6.37;4.60;;;;;;;14.27;100.00;97342.19;4124145;28;20648;-89
2023/03/24 08:17:12;;;;;;;4.90;4.40;;;;;;;14.31;100.00;97340.91;4139301;28;20685;-88
2023/03/24 08:19:15;;;;;;;4.90;4.17;;;;;;;14.31;100.00;97338.28;4105511;28;20634;-89
2023/03/24 08:21:19;;;;;;;5.63;4.40;;;;;;;14.29;100.00;97345.47;4125257;28;21279;-88
2023/03/24 08:23:22;;;;;;;5.27;4.40;;;;;;;14.29;100.00;97350.72;4105232;28;20669;-89
2023/03/24 08:25:26;;;;;;;6.40;5.23;;;;;;;14.27;100.00;97347.44;4125147;28;20680;-89
2023/03/24 08:27:29;;;;;;;8.70;6.43;;;;;;;14.25;100.00;97352.81;4139878;28;20695;-88
2023/03/24 08:29:33;;;;;;;7.60;5.63;;;;;;;14.23;100.00;97344.25;4126520;28;20639;-89
2023/03/24 08:31:37;;;;;;;6.43;4.57;;;;;;;14.23;100.00;97346.06;4109624;28;20626;-88
2023/03/24 08:33:41;;;;;;;4.20;3.80;;;;;;;14.23;100.00;97344.25;4130263;28;20634;-88
2023/03/24 08:35:45;;;;;;;4.77;4.27;;;;;;;14.25;100.00;97328.38;4122320;28;20654;-88
2023/03/24 08:37:49;;;;;;;5.90;4.00;;;;;;;14.30;100.00;97307.78;4121094;28;20701;-89
2023/03/24 08:39:57;;;;;;;4.27;3.87;;;;;;;14.31;100.00;97280.56;4109517;28;20641;-89
2023/03/24 08:42:00;;;;;;;5.83;4.20;;;;;;;14.30;100.00;97236.97;4121485;28;20628;-88
2023/03/24 08:44:04;;;;;;;5.13;3.67;;;;;;;14.29;100.00;97217.75;4121754;28;20660;-90
2023/03/24 08:46:09;;;;;;;3.97;3.57;;;;;;;14.27;100.00;97197.91;4108502;28;20642;-90
2023/03/24 08:48:15;;;;;;;5.30;4.23;;;;;;;14.29;100.00;97212.50;4107285;28;20639;-91
2023/03/24 08:50:22;;;;;;;7.70;3.80;;;;;;;14.31;100.00;97231.56;4119485;28;20636;-91
2023/03/24 08:52:26;;;;;;;4.77;4.27;;;;;;;14.32;100.00;97214.03;4138158;28;21246;-89
2023/03/24 08:54:29;;;;;;;4.40;4.00;;;;;;;14.39;100.00;97243.94;4118902;28;20846;-88
2023/03/24 08:56:32;;;;;;;4.60;3.87;;;;;;;14.46;100.00;97287.78;4106848;28;20762;-88
2023/03/24 08:58:36;;;;;;;5.30;3.70;;;;;;;14.50;100.00;97304.91;4110880;28;20675;-90
2023/03/24 09:00:40;;;;;;;6.27;4.70;;;;;;;14.45;100.00;97304.53;4129450;28;21205;-90
2023/03/24 09:02:44;;;;;;;7.63;5.10;;;;;;;14.44;100.00;97305.47;4111992;28;20639;-90
2023/03/24 09:04:48;;;;;;;4.77;3.80;;;;;;;14.51;100.00;97306.56;4123601;28;20715;-90
2023/03/24 09:06:58;;;;;;;4.30;3.60;;;;;;;14.56;100.00;97321.84;4119241;28;20633;-86
2023/03/24 09:09:05;;;;;;;5.90;3.80;;;;;;;14.54;100.00;97321.16;4137634;28;20976;-90
2023/03/24 09:11:14;;;;;;;4.00;3.60;;;;;;;14.47;100.00;97325.38;4135878;28;20686;-90
2023/03/24 09:13:18;;;;;;;4.33;3.37;;;;;;;14.45;100.00;97327.28;4129443;28;20654;-91
2023/03/24 09:15:22;;;;;;;4.40;3.40;;;;;;;14.43;100.00;97329.25;4123768;28;20738;-90
2023/03/24 09:17:25;;;;;;;5.50;3.53;;;;;;;14.35;100.00;97327.34;4118023;28;20676;-90
2023/03/24 09:19:28;;;;;;;4.60;3.87;;;;;;;14.37;100.00;97319.34;4127839;28;20659;-91
2023/03/24 09:21:31;;;;;;;6.27;4.70;;;;;;;14.36;100.00;97322.94;4110440;28;20621;-91
2023/03/24 09:23:36;;;;;;;6.30;3.87;;;;;;;14.28;100.00;97315.81;4124132;28;20640;-90
2023/03/24 09:25:39;;;;;;;4.10;3.70;;;;;;;14.32;100.00;97314.53;4135505;28;20639;-90
2023/03/24 09:27:43;;;;;;;4.80;4.30;;;;;;;14.32;100.00;97311.09;4124653;28;21047;-90
2023/03/24 09:29:46;;;;;;;4.67;3.53;;;;;;;14.45;100.00;97320.25;4120715;28;21436;-90
2023/03/24 09:31:50;;;;;;;4.30;3.50;;;;;;;14.50;100.00;97336.38;4128815;28;21037;-90
2023/03/24 09:33:53;;;;;;;4.60;3.90;;;;;;;14.50;100.00;97328.50;4120556;28;20676;-89
2023/03/24 09:35:57;;;;;;;4.30;3.90;;;;;;;14.47;100.00;97325.38;4121034;28;21173;-89
2023/03/24 09:38:02;;;;;;;5.13;4.23;;;;;;;14.40;100.00;97325.13;4133100;28;21402;-89
2023/03/24 09:40:08;;;;;;;4.40;3.93;;;;;;;14.50;100.00;97325.06;4118014;28;20640;-89
2023/03/24 09:42:18;;;;;;;5.47;3.97;;;;;;;14.45;100.00;97314.16;4129004;28;21148;-89
2023/03/24 09:44:25;;;;;;;4.50;3.90;;;;;;;14.56;100.00;97320.03;4135198;28;20668;-89
2023/03/24 09:46:31;;;;;;;4.87;3.90;;;;;;;14.59;100.00;97324.19;4125952;28;20703;-89
2023/03/24 09:48:38;;;;;;;4.40;3.90;;;;;;;14.54;100.00;97322.00;4138130;28;20626;-89
2023/03/24 09:50:46;;;;;;;4.90;4.00;;;;;;;14.52;100.00;97326.56;4125794;28;20633;-90
2023/03/24 09:52:52;;;;;;;4.40;4.00;;;;;;;14.42;100.00;97327.63;4111413;28;20621;-90
2023/03/24 09:54:57;;;;;;;4.63;3.60;;;;;;;14.43;100.00;97324.00;4126735;28;21004;-90
2023/03/24 09:57:04;;;;;;;4.70;3.43;;;;;;;14.48;100.00;97313.88;4123351;28;20732;-91
2023/03/24 09:59:13;;;;;;;4.10;3.70;;;;;;;14.60;100.00;97334.53;4121143;28;20652;-91
2023/03/24 10:01:17;;;;;;;4.40;3.90;;;;;;;14.67;100.00;97327.69;4110833;28;20733;-91
2023/03/24 10:03:22;;;;;;;5.40;3.67;;;;;;;14.71;100.00;97335.13;4125677;28;20635;-91
2023/03/24 10:05:30;;;;;;;5.00;4.10;;;;;;;14.73;100.00;97337.63;4119964;28;20723;-91
2023/03/24 10:07:37;;;;;;;4.47;3.97;;;;;;;14.71;100.00;97324.63;4123961;28;20627;-91
2023/03/24 10:09:41;;;;;;;5.97;4.13;;;;;;;14.86;99.71;97327.59;4120355;28;20625;-91
2023/03/24 10:11:47;;;;;;;4.07;3.67;;;;;;;14.89;99.44;97335.97;4119557;28;22036;-91
2023/03/24 10:14:07;;;;;;;4.97;4.30;;;;;;;15.03;98.93;97347.75;4114460;28;20643;-91
2023/03/24 10:16:13;;;;;;;4.93;4.17;;;;;;;15.08;98.89;97317.47;4118578;28;20645;-91
2023/03/24 10:18:31;;;;;;;3.90;3.50;;;;;;;15.28;99.78;97327.66;4117272;28;20714;-91
2023/03/24 10:20:37;;;;;;;4.10;3.50;;;;;;;15.49;97.03;97335.22;4117689;28;20665;-90